sensor_id;sensor_type;location;lat;lon;timestamp;P1;durP1;ratioP1;P2;durP2;ratioP2
68319;SDS011;55168;51.120;17.024;2022-11-20T00:00:00;43.6;;;28.4;;
68319;SDS011;55168;51.120;17.024;2022-11-20T00:01:11;41.7;;;27.9;;
68319;SDS011;55168;51.120;17.024;2022-11-20T00:02:00;41.7;;;27.9;;
68319;SDS011;55168;51.120;17.024;2022-11-20T00:03:00;41.7;;;27.9;;
68319;SDS011;55168;51.120;17.024;2022-11-20T00:04:00;41.7;;;27.9;;
68319;SDS011;55168;51.120;17.024;2022-11-20T00:05:00;41.7;;;27.9;;
68319;SDS011;55168;51.120;17.024;2022-11-20T00:06:00;43.1;;;28.0;;
68319;SDS011;55168;51.120;17.024;2022-11-20T00:07:00;43.1;;;28.0;;
68319;SDS011;55168;51.120;17.024;2022-11-20T00:08:00;43.1;;;28.0;;
68319;SDS011;55168;51.120;17.024;2022-11-20T00:09:00;43.1;;;28.0;;
68319;SDS011;55168;51.120;17.024;2022-11-20T00:10:00;43.1;;;28.0;;
68319;SDS011;55168;51.120;17.024;2022-11-20T00:11:05;43.4;;;28.3;;
68319;SDS011;55168;51.120;17.024;2022-11-20T00:12:00;43.4;;;28.3;;
68319;SDS011;55168;51.120;17.024;2022-11-20T00:13:00;43.4;;;28.3;;
68319;SDS011;55168;51.120;17.024;2022-11-20T00:14:01;43.4;;;28.3;;
68319;SDS011;55168;51.120;17.024;2022-11-20T00:15:00;43.4;;;28.3;;
68319;SDS011;55168;51.120;17.024;2022-11-20T00:16:02;42.8;;;28.2;;
68319;SDS011;55168;51.120;17.024;2022-11-20T00:17:00;42.8;;;28.2;;
68319;SDS011;55168;51.120;17.024;2022-11-20T00:18:00;42.8;;;28.2;;
68319;SDS011;55168;51.120;17.024;2022-11-20T00:19:00;42.8;;;28.2;;
68319;SDS011;55168;51.120;17.024;2022-11-20T00:20:00;42.8;;;28.2;;
68319;SDS011;55168;51.120;17.024;2022-11-20T00:21:01;43.5;;;27.9;;
68319;SDS011;55168;51.120;17.024;2022-11-20T00:22:00;43.5;;;27.9;;
68319;SDS011;55168;51.120;17.024;2022-11-20T00:23:00;43.5;;;27.9;;
68319;SDS011;55168;51.120;17.024;2022-11-20T00:24:00;43.5;;;27.9;;
68319;SDS011;55168;51.120;17.024;2022-11-20T00:25:00;43.5;;;27.9;;
68319;SDS011;55168;51.120;17.024;2022-11-20T00:26:04;40.6;;;26.9;;
68319;SDS011;55168;51.120;17.024;2022-11-20T00:27:00;40.6;;;26.9;;
68319;SDS011;55168;51.120;17.024;2022-11-20T00:28:00;40.6;;;26.9;;
68319;SDS011;55168;51.120;17.024;2022-11-20T00:29:01;40.6;;;26.9;;
68319;SDS011;55168;51.120;17.024;2022-11-20T00:30:00;40.6;;;26.9;;
68319;SDS011;55168;51.120;17.024;2022-11-20T00:31:05;40.6;;;26.3;;
68319;SDS011;55168;51.120;17.024;2022-11-20T00:32:00;40.6;;;26.3;;
68319;SDS011;55168;51.120;17.024;2022-11-20T00:33:00;40.6;;;26.3;;
68319;SDS011;55168;51.120;17.024;2022-11-20T00:34:00;40.6;;;26.3;;
68319;SDS011;55168;51.120;17.024;2022-11-20T00:35:00;40.6;;;26.3;;
68319;SDS011;55168;51.120;17.024;2022-11-20T00:36:01;37.9;;;25.3;;
68319;SDS011;55168;51.120;17.024;2022-11-20T00:37:00;37.9;;;25.3;;
68319;SDS011;55168;51.120;17.024;2022-11-20T00:38:00;37.9;;;25.3;;
68319;SDS011;55168;51.120;17.024;2022-11-20T00:39:00;37.9;;;25.3;;
68319;SDS011;55168;51.120;17.024;2022-11-20T00:40:00;37.9;;;25.3;;
68319;SDS011;55168;51.120;17.024;2022-11-20T00:41:02;40.1;;;26.5;;
68319;SDS011;55168;51.120;17.024;2022-11-20T00:42:00;40.1;;;26.5;;
68319;SDS011;55168;51.120;17.024;2022-11-20T00:43:00;40.1;;;26.5;;
68319;SDS011;55168;51.120;17.024;2022-11-20T00:44:00;40.1;;;26.5;;
68319;SDS011;55168;51.120;17.024;2022-11-20T00:45:00;40.1;;;26.5;;
68319;SDS011;55168;51.120;17.024;2022-11-20T00:46:01;39.1;;;26.1;;
68319;SDS011;55168;51.120;17.024;2022-11-20T00:47:00;39.1;;;26.1;;
68319;SDS011;55168;51.120;17.024;2022-11-20T00:48:00;39.1;;;26.1;;
68319;SDS011;55168;51.120;17.024;2022-11-20T00:49:00;39.1;;;26.1;;
68319;SDS011;55168;51.120;17.024;2022-11-20T00:50:00;39.1;;;26.1;;
68319;SDS011;55168;51.120;17.024;2022-11-20T00:51:00;34.8;;;23.4;;
68319;SDS011;55168;51.120;17.024;2022-11-20T00:52:00;34.8;;;23.4;;
68319;SDS011;55168;51.120;17.024;2022-11-20T00:53:00;34.8;;;23.4;;
68319;SDS011;55168;51.120;17.024;2022-11-20T00:54:00;34.8;;;23.4;;
68319;SDS011;55168;51.120;17.024;2022-11-20T00:55:00;34.8;;;23.4;;
68319;SDS011;55168;51.120;17.024;2022-11-20T00:56:02;36.9;;;24.6;;
68319;SDS011;55168;51.120;17.024;2022-11-20T00:57:00;36.9;;;24.6;;
68319;SDS011;55168;51.120;17.024;2022-11-20T00:58:00;36.9;;;24.6;;
68319;SDS011;55168;51.120;17.024;2022-11-20T00:59:00;36.9;;;24.6;;
68319;SDS011;55168;51.120;17.024;2022-11-20T01:00:00;36.9;;;24.6;;
68319;SDS011;55168;51.120;17.024;2022-11-20T01:01:02;39.7;;;25.5;;
68319;SDS011;55168;51.120;17.024;2022-11-20T01:02:00;39.7;;;25.5;;
68319;SDS011;55168;51.120;17.024;2022-11-20T01:03:00;39.7;;;25.5;;
68319;SDS011;55168;51.120;17.024;2022-11-20T01:04:00;39.7;;;25.5;;
68319;SDS011;55168;51.120;17.024;2022-11-20T01:05:00;40.8;;;25.5;;
68319;SDS011;55168;51.120;17.024;2022-11-20T01:06:01;40.8;;;25.5;;
68319;SDS011;55168;51.120;17.024;2022-11-20T01:07:00;40.8;;;25.5;;
68319;SDS011;55168;51.120;17.024;2022-11-20T01:08:00;40.8;;;25.5;;
68319;SDS011;55168;51.120;17.024;2022-11-20T01:09:03;40.8;;;25.5;;
68319;SDS011;55168;51.120;17.024;2022-11-20T01:10:00;43.8;;;27.3;;
68319;SDS011;55168;51.120;17.024;2022-11-20T01:11:10;43.8;;;27.3;;
68319;SDS011;55168;51.120;17.024;2022-11-20T01:12:00;43.8;;;27.3;;
68319;SDS011;55168;51.120;17.024;2022-11-20T01:13:00;43.8;;;27.3;;
68319;SDS011;55168;51.120;17.024;2022-11-20T01:14:02;43.8;;;27.3;;
68319;SDS011;55168;51.120;17.024;2022-11-20T01:15:00;52.2;;;30.6;;
68319;SDS011;55168;51.120;17.024;2022-11-20T01:16:10;52.2;;;30.6;;
68319;SDS011;55168;51.120;17.024;2022-11-20T01:17:00;52.2;;;30.6;;
68319;SDS011;55168;51.120;17.024;2022-11-20T01:18:00;52.2;;;30.6;;
68319;SDS011;55168;51.120;17.024;2022-11-20T01:19:01;52.2;;;30.6;;
68319;SDS011;55168;51.120;17.024;2022-11-20T01:20:00;41.6;;;27.1;;
68319;SDS011;55168;51.120;17.024;2022-11-20T01:21:04;41.6;;;27.1;;
68319;SDS011;55168;51.120;17.024;2022-11-20T01:22:00;41.6;;;27.1;;
68319;SDS011;55168;51.120;17.024;2022-11-20T01:23:00;41.6;;;27.1;;
68319;SDS011;55168;51.120;17.024;2022-11-20T01:24:00;41.6;;;27.1;;
68319;SDS011;55168;51.120;17.024;2022-11-20T01:25:00;41.8;;;27.4;;
68319;SDS011;55168;51.120;17.024;2022-11-20T01:26:01;41.8;;;27.4;;
68319;SDS011;55168;51.120;17.024;2022-11-20T01:27:00;41.8;;;27.4;;
68319;SDS011;55168;51.120;17.024;2022-11-20T01:28:00;41.8;;;27.4;;
68319;SDS011;55168;51.120;17.024;2022-11-20T01:29:01;41.8;;;27.4;;
68319;SDS011;55168;51.120;17.024;2022-11-20T01:30:00;39.5;;;26.1;;
68319;SDS011;55168;51.120;17.024;2022-11-20T01:31:00;39.5;;;26.1;;
68319;SDS011;55168;51.120;17.024;2022-11-20T01:32:00;39.5;;;26.1;;
68319;SDS011;55168;51.120;17.024;2022-11-20T01:33:00;39.5;;;26.1;;
68319;SDS011;55168;51.120;17.024;2022-11-20T01:34:03;39.5;;;26.1;;
68319;SDS011;55168;51.120;17.024;2022-11-20T01:35:00;38.6;;;25.1;;
68319;SDS011;55168;51.120;17.024;2022-11-20T01:36:05;38.6;;;25.1;;
68319;SDS011;55168;51.120;17.024;2022-11-20T01:37:00;38.6;;;25.1;;
68319;SDS011;55168;51.120;17.024;2022-11-20T01:38:00;38.6;;;25.1;;
68319;SDS011;55168;51.120;17.024;2022-11-20T01:39:03;38.6;;;25.1;;
68319;SDS011;55168;51.120;17.024;2022-11-20T01:40:00;39.4;;;25.4;;
68319;SDS011;55168;51.120;17.024;2022-11-20T01:41:00;39.4;;;25.4;;
68319;SDS011;55168;51.120;17.024;2022-11-20T01:42:00;39.4;;;25.4;;
68319;SDS011;55168;51.120;17.024;2022-11-20T01:43:17;39.4;;;25.4;;
68319;SDS011;55168;51.120;17.024;2022-11-20T01:44:00;39.4;;;25.4;;
68319;SDS011;55168;51.120;17.024;2022-11-20T01:45:00;38.8;;;24.9;;
68319;SDS011;55168;51.120;17.024;2022-11-20T01:46:17;38.8;;;24.9;;
68319;SDS011;55168;51.120;17.024;2022-11-20T01:47:03;38.8;;;24.9;;
68319;SDS011;55168;51.120;17.024;2022-11-20T01:48:00;38.8;;;24.9;;
68319;SDS011;55168;51.120;17.024;2022-11-20T01:49:04;38.8;;;24.9;;
68319;SDS011;55168;51.120;17.024;2022-11-20T01:50:04;35.8;;;23.0;;
68319;SDS011;55168;51.120;17.024;2022-11-20T01:51:01;35.8;;;23.0;;
68319;SDS011;55168;51.120;17.024;2022-11-20T01:52:05;35.8;;;23.0;;
68319;SDS011;55168;51.120;17.024;2022-11-20T01:53:03;35.8;;;23.0;;
68319;SDS011;55168;51.120;17.024;2022-11-20T01:54:04;35.8;;;23.0;;
68319;SDS011;55168;51.120;17.024;2022-11-20T01:55:04;38.4;;;23.2;;
68319;SDS011;55168;51.120;17.024;2022-11-20T01:56:01;38.4;;;23.2;;
68319;SDS011;55168;51.120;17.024;2022-11-20T01:57:00;38.4;;;23.2;;
68319;SDS011;55168;51.120;17.024;2022-11-20T01:58:01;38.4;;;23.2;;
68319;SDS011;55168;51.120;17.024;2022-11-20T01:59:01;38.4;;;23.2;;
68319;SDS011;55168;51.120;17.024;2022-11-20T02:00:04;41.9;;;24.9;;
68319;SDS011;55168;51.120;17.024;2022-11-20T02:01:00;41.9;;;24.9;;
68319;SDS011;55168;51.120;17.024;2022-11-20T02:02:00;41.9;;;24.9;;
68319;SDS011;55168;51.120;17.024;2022-11-20T02:03:03;41.9;;;24.9;;
68319;SDS011;55168;51.120;17.024;2022-11-20T02:04:00;41.9;;;24.9;;
68319;SDS011;55168;51.120;17.024;2022-11-20T02:05:03;44.0;;;27.7;;
68319;SDS011;55168;51.120;17.024;2022-11-20T02:06:11;44.0;;;27.7;;
68319;SDS011;55168;51.120;17.024;2022-11-20T02:07:01;44.0;;;27.7;;
68319;SDS011;55168;51.120;17.024;2022-11-20T02:08:01;44.0;;;27.7;;
68319;SDS011;55168;51.120;17.024;2022-11-20T02:09:00;44.0;;;27.7;;
68319;SDS011;55168;51.120;17.024;2022-11-20T02:10:00;39.8;;;26.6;;
68319;SDS011;55168;51.120;17.024;2022-11-20T02:11:00;39.8;;;26.6;;
68319;SDS011;55168;51.120;17.024;2022-11-20T02:12:00;39.8;;;26.6;;
68319;SDS011;55168;51.120;17.024;2022-11-20T02:13:00;39.8;;;26.6;;
68319;SDS011;55168;51.120;17.024;2022-11-20T02:14:00;39.8;;;26.6;;
68319;SDS011;55168;51.120;17.024;2022-11-20T02:15:00;40.9;;;25.1;;
68319;SDS011;55168;51.120;17.024;2022-11-20T02:16:00;40.9;;;25.1;;
68319;SDS011;55168;51.120;17.024;2022-11-20T02:17:00;40.9;;;25.1;;
68319;SDS011;55168;51.120;17.024;2022-11-20T02:18:00;40.9;;;25.1;;
68319;SDS011;55168;51.120;17.024;2022-11-20T02:19:02;40.9;;;25.1;;
68319;SDS011;55168;51.120;17.024;2022-11-20T02:20:00;38.9;;;24.6;;
68319;SDS011;55168;51.120;17.024;2022-11-20T02:21:06;38.9;;;24.6;;
68319;SDS011;55168;51.120;17.024;2022-11-20T02:22:05;38.9;;;24.6;;
68319;SDS011;55168;51.120;17.024;2022-11-20T02:23:08;38.9;;;24.6;;
68319;SDS011;55168;51.120;17.024;2022-11-20T02:24:08;38.9;;;24.6;;
68319;SDS011;55168;51.120;17.024;2022-11-20T02:25:02;37.4;;;24.3;;
68319;SDS011;55168;51.120;17.024;2022-11-20T02:26:02;37.4;;;24.3;;
68319;SDS011;55168;51.120;17.024;2022-11-20T02:27:05;37.4;;;24.3;;
68319;SDS011;55168;51.120;17.024;2022-11-20T02:28:00;37.4;;;24.3;;
68319;SDS011;55168;51.120;17.024;2022-11-20T02:29:02;37.4;;;24.3;;
68319;SDS011;55168;51.120;17.024;2022-11-20T02:30:03;39.1;;;25.6;;
68319;SDS011;55168;51.120;17.024;2022-11-20T02:31:00;39.1;;;25.6;;
68319;SDS011;55168;51.120;17.024;2022-11-20T02:32:00;39.1;;;25.6;;
68319;SDS011;55168;51.120;17.024;2022-11-20T02:33:00;39.1;;;25.6;;
68319;SDS011;55168;51.120;17.024;2022-11-20T02:34:00;39.1;;;25.6;;
68319;SDS011;55168;51.120;17.024;2022-11-20T02:35:40;38.2;;;24.8;;
68319;SDS011;55168;51.120;17.024;2022-11-20T02:36:00;38.2;;;24.8;;
68319;SDS011;55168;51.120;17.024;2022-11-20T02:37:00;38.2;;;24.8;;
68319;SDS011;55168;51.120;17.024;2022-11-20T02:38:02;38.2;;;24.8;;
68319;SDS011;55168;51.120;17.024;2022-11-20T02:39:00;38.2;;;24.8;;
68319;SDS011;55168;51.120;17.024;2022-11-20T02:40:00;35.6;;;24.5;;
68319;SDS011;55168;51.120;17.024;2022-11-20T02:41:00;35.6;;;24.5;;
68319;SDS011;55168;51.120;17.024;2022-11-20T02:42:00;35.6;;;24.5;;
68319;SDS011;55168;51.120;17.024;2022-11-20T02:43:00;35.6;;;24.5;;
68319;SDS011;55168;51.120;17.024;2022-11-20T02:44:00;35.6;;;24.5;;
68319;SDS011;55168;51.120;17.024;2022-11-20T02:45:00;36.7;;;23.8;;
68319;SDS011;55168;51.120;17.024;2022-11-20T02:46:00;36.7;;;23.8;;
68319;SDS011;55168;51.120;17.024;2022-11-20T02:47:00;36.7;;;23.8;;
68319;SDS011;55168;51.120;17.024;2022-11-20T02:48:00;36.7;;;23.8;;
68319;SDS011;55168;51.120;17.024;2022-11-20T02:49:01;36.7;;;23.8;;
68319;SDS011;55168;51.120;17.024;2022-11-20T02:50:00;37.6;;;24.8;;
68319;SDS011;55168;51.120;17.024;2022-11-20T02:51:00;37.6;;;24.8;;
68319;SDS011;55168;51.120;17.024;2022-11-20T02:52:00;37.6;;;24.8;;
68319;SDS011;55168;51.120;17.024;2022-11-20T02:53:00;37.6;;;24.8;;
68319;SDS011;55168;51.120;17.024;2022-11-20T02:54:00;37.6;;;24.8;;
68319;SDS011;55168;51.120;17.024;2022-11-20T02:55:00;33.0;;;22.9;;
68319;SDS011;55168;51.120;17.024;2022-11-20T02:56:00;33.0;;;22.9;;
68319;SDS011;55168;51.120;17.024;2022-11-20T02:57:00;33.0;;;22.9;;
68319;SDS011;55168;51.120;17.024;2022-11-20T02:58:00;33.0;;;22.9;;
68319;SDS011;55168;51.120;17.024;2022-11-20T02:59:00;33.0;;;22.9;;
68319;SDS011;55168;51.120;17.024;2022-11-20T03:00:00;36.6;;;24.7;;
68319;SDS011;55168;51.120;17.024;2022-11-20T03:01:00;36.6;;;24.7;;
68319;SDS011;55168;51.120;17.024;2022-11-20T03:02:00;36.6;;;24.7;;
68319;SDS011;55168;51.120;17.024;2022-11-20T03:03:00;36.6;;;24.7;;
68319;SDS011;55168;51.120;17.024;2022-11-20T03:04:00;36.6;;;24.7;;
68319;SDS011;55168;51.120;17.024;2022-11-20T03:05:00;36.5;;;25.1;;
68319;SDS011;55168;51.120;17.024;2022-11-20T03:06:00;36.5;;;25.1;;
68319;SDS011;55168;51.120;17.024;2022-11-20T03:07:00;36.5;;;25.1;;
68319;SDS011;55168;51.120;17.024;2022-11-20T03:08:00;36.5;;;25.1;;
68319;SDS011;55168;51.120;17.024;2022-11-20T03:09:00;36.5;;;25.1;;
68319;SDS011;55168;51.120;17.024;2022-11-20T03:10:00;35.5;;;25.3;;
68319;SDS011;55168;51.120;17.024;2022-11-20T03:11:05;35.5;;;25.3;;
68319;SDS011;55168;51.120;17.024;2022-11-20T03:12:00;35.5;;;25.3;;
68319;SDS011;55168;51.120;17.024;2022-11-20T03:13:00;35.5;;;25.3;;
68319;SDS011;55168;51.120;17.024;2022-11-20T03:14:01;35.5;;;25.3;;
68319;SDS011;55168;51.120;17.024;2022-11-20T03:15:00;36.9;;;25.7;;
68319;SDS011;55168;51.120;17.024;2022-11-20T03:16:08;36.9;;;25.7;;
68319;SDS011;55168;51.120;17.024;2022-11-20T03:17:00;36.9;;;25.7;;
68319;SDS011;55168;51.120;17.024;2022-11-20T03:18:00;36.9;;;25.7;;
68319;SDS011;55168;51.120;17.024;2022-11-20T03:19:00;36.9;;;25.7;;
68319;SDS011;55168;51.120;17.024;2022-11-20T03:20:00;35.9;;;25.4;;
68319;SDS011;55168;51.120;17.024;2022-11-20T03:21:00;35.9;;;25.4;;
68319;SDS011;55168;51.120;17.024;2022-11-20T03:22:00;35.9;;;25.4;;
68319;SDS011;55168;51.120;17.024;2022-11-20T03:23:00;35.9;;;25.4;;
68319;SDS011;55168;51.120;17.024;2022-11-20T03:24:00;35.9;;;25.4;;
68319;SDS011;55168;51.120;17.024;2022-11-20T03:25:00;38.0;;;26.0;;
68319;SDS011;55168;51.120;17.024;2022-11-20T03:26:11;38.0;;;26.0;;
68319;SDS011;55168;51.120;17.024;2022-11-20T03:27:00;38.0;;;26.0;;
68319;SDS011;55168;51.120;17.024;2022-11-20T03:28:00;38.0;;;26.0;;
68319;SDS011;55168;51.120;17.024;2022-11-20T03:29:02;38.0;;;26.0;;
68319;SDS011;55168;51.120;17.024;2022-11-20T03:30:00;35.5;;;26.4;;
68319;SDS011;55168;51.120;17.024;2022-11-20T03:31:05;35.5;;;26.4;;
68319;SDS011;55168;51.120;17.024;2022-11-20T03:32:00;35.5;;;26.4;;
68319;SDS011;55168;51.120;17.024;2022-11-20T03:33:00;35.5;;;26.4;;
68319;SDS011;55168;51.120;17.024;2022-11-20T03:34:01;35.5;;;26.4;;
68319;SDS011;55168;51.120;17.024;2022-11-20T03:35:00;35.3;;;26.0;;
68319;SDS011;55168;51.120;17.024;2022-11-20T03:36:02;35.3;;;26.0;;
68319;SDS011;55168;51.120;17.024;2022-11-20T03:37:00;35.3;;;26.0;;
68319;SDS011;55168;51.120;17.024;2022-11-20T03:38:00;35.3;;;26.0;;
68319;SDS011;55168;51.120;17.024;2022-11-20T03:39:00;35.3;;;26.0;;
68319;SDS011;55168;51.120;17.024;2022-11-20T03:40:00;35.1;;;25.4;;
68319;SDS011;55168;51.120;17.024;2022-11-20T03:41:01;35.1;;;25.4;;
68319;SDS011;55168;51.120;17.024;2022-11-20T03:42:00;35.1;;;25.4;;
68319;SDS011;55168;51.120;17.024;2022-11-20T03:43:00;35.1;;;25.4;;
68319;SDS011;55168;51.120;17.024;2022-11-20T03:44:02;35.1;;;25.4;;
68319;SDS011;55168;51.120;17.024;2022-11-20T03:45:00;34.4;;;25.1;;
68319;SDS011;55168;51.120;17.024;2022-11-20T03:46:00;34.4;;;25.1;;
68319;SDS011;55168;51.120;17.024;2022-11-20T03:47:00;34.4;;;25.1;;
68319;SDS011;55168;51.120;17.024;2022-11-20T03:48:00;34.4;;;25.1;;
68319;SDS011;55168;51.120;17.024;2022-11-20T03:49:00;34.4;;;25.1;;
68319;SDS011;55168;51.120;17.024;2022-11-20T03:50:00;35.7;;;24.9;;
68319;SDS011;55168;51.120;17.024;2022-11-20T03:51:10;35.7;;;24.9;;
68319;SDS011;55168;51.120;17.024;2022-11-20T03:52:00;35.7;;;24.9;;
68319;SDS011;55168;51.120;17.024;2022-11-20T03:53:00;35.7;;;24.9;;
68319;SDS011;55168;51.120;17.024;2022-11-20T03:54:04;35.7;;;24.9;;
68319;SDS011;55168;51.120;17.024;2022-11-20T03:55:00;33.6;;;24.7;;
68319;SDS011;55168;51.120;17.024;2022-11-20T03:56:00;33.6;;;24.7;;
68319;SDS011;55168;51.120;17.024;2022-11-20T03:57:00;33.6;;;24.7;;
68319;SDS011;55168;51.120;17.024;2022-11-20T03:58:00;33.6;;;24.7;;
68319;SDS011;55168;51.120;17.024;2022-11-20T03:59:00;33.6;;;24.7;;
68319;SDS011;55168;51.120;17.024;2022-11-20T04:00:00;36.4;;;24.4;;
68319;SDS011;55168;51.120;17.024;2022-11-20T04:01:06;36.4;;;24.4;;
68319;SDS011;55168;51.120;17.024;2022-11-20T04:02:00;36.4;;;24.4;;
68319;SDS011;55168;51.120;17.024;2022-11-20T04:03:01;36.4;;;24.4;;
68319;SDS011;55168;51.120;17.024;2022-11-20T04:04:00;36.4;;;24.4;;
68319;SDS011;55168;51.120;17.024;2022-11-20T04:05:00;32.9;;;23.6;;
68319;SDS011;55168;51.120;17.024;2022-11-20T04:06:02;32.9;;;23.6;;
68319;SDS011;55168;51.120;17.024;2022-11-20T04:07:00;32.9;;;23.6;;
68319;SDS011;55168;51.120;17.024;2022-11-20T04:08:00;32.9;;;23.6;;
68319;SDS011;55168;51.120;17.024;2022-11-20T04:09:00;32.9;;;23.6;;
68319;SDS011;55168;51.120;17.024;2022-11-20T04:10:00;32.3;;;23.4;;
68319;SDS011;55168;51.120;17.024;2022-11-20T04:12:00;32.3;;;23.4;;
68319;SDS011;55168;51.120;17.024;2022-11-20T04:13:00;32.3;;;23.4;;
68319;SDS011;55168;51.120;17.024;2022-11-20T04:14:02;32.3;;;23.4;;
68319;SDS011;55168;51.120;17.024;2022-11-20T04:15:00;33.3;;;24.1;;
68319;SDS011;55168;51.120;17.024;2022-11-20T04:16:00;33.3;;;24.1;;
68319;SDS011;55168;51.120;17.024;2022-11-20T04:17:00;33.3;;;24.1;;
68319;SDS011;55168;51.120;17.024;2022-11-20T04:18:00;33.3;;;24.1;;
68319;SDS011;55168;51.120;17.024;2022-11-20T04:19:01;33.3;;;24.1;;
68319;SDS011;55168;51.120;17.024;2022-11-20T04:20:00;34.0;;;24.8;;
68319;SDS011;55168;51.120;17.024;2022-11-20T04:21:00;34.0;;;24.8;;
68319;SDS011;55168;51.120;17.024;2022-11-20T04:22:00;34.0;;;24.8;;
68319;SDS011;55168;51.120;17.024;2022-11-20T04:23:00;34.0;;;24.8;;
68319;SDS011;55168;51.120;17.024;2022-11-20T04:24:00;34.0;;;24.8;;
68319;SDS011;55168;51.120;17.024;2022-11-20T04:25:00;31.2;;;22.8;;
68319;SDS011;55168;51.120;17.024;2022-11-20T04:26:00;31.2;;;22.8;;
68319;SDS011;55168;51.120;17.024;2022-11-20T04:27:00;31.2;;;22.8;;
68319;SDS011;55168;51.120;17.024;2022-11-20T04:28:00;31.2;;;22.8;;
68319;SDS011;55168;51.120;17.024;2022-11-20T04:29:00;31.2;;;22.8;;
68319;SDS011;55168;51.120;17.024;2022-11-20T04:30:00;32.6;;;23.8;;
68319;SDS011;55168;51.120;17.024;2022-11-20T04:31:05;32.6;;;23.8;;
68319;SDS011;55168;51.120;17.024;2022-11-20T04:32:00;32.6;;;23.8;;
68319;SDS011;55168;51.120;17.024;2022-11-20T04:33:00;32.6;;;23.8;;
68319;SDS011;55168;51.120;17.024;2022-11-20T04:34:01;32.6;;;23.8;;
68319;SDS011;55168;51.120;17.024;2022-11-20T04:35:00;31.9;;;22.8;;
68319;SDS011;55168;51.120;17.024;2022-11-20T04:36:01;31.9;;;22.8;;
68319;SDS011;55168;51.120;17.024;2022-11-20T04:37:00;31.9;;;22.8;;
68319;SDS011;55168;51.120;17.024;2022-11-20T04:38:00;31.9;;;22.8;;
68319;SDS011;55168;51.120;17.024;2022-11-20T04:39:02;31.9;;;22.8;;
68319;SDS011;55168;51.120;17.024;2022-11-20T04:40:00;33.4;;;23.3;;
68319;SDS011;55168;51.120;17.024;2022-11-20T04:41:01;33.4;;;23.3;;
68319;SDS011;55168;51.120;17.024;2022-11-20T04:42:00;33.4;;;23.3;;
68319;SDS011;55168;51.120;17.024;2022-11-20T04:43:00;33.4;;;23.3;;
68319;SDS011;55168;51.120;17.024;2022-11-20T04:44:01;33.4;;;23.3;;
68319;SDS011;55168;51.120;17.024;2022-11-20T04:45:00;32.2;;;23.8;;
68319;SDS011;55168;51.120;17.024;2022-11-20T04:46:00;32.2;;;23.8;;
68319;SDS011;55168;51.120;17.024;2022-11-20T04:47:00;32.2;;;23.8;;
68319;SDS011;55168;51.120;17.024;2022-11-20T04:48:00;32.2;;;23.8;;
68319;SDS011;55168;51.120;17.024;2022-11-20T04:49:00;32.2;;;23.8;;
68319;SDS011;55168;51.120;17.024;2022-11-20T04:50:00;31.0;;;23.5;;
68319;SDS011;55168;51.120;17.024;2022-11-20T04:51:03;31.0;;;23.5;;
68319;SDS011;55168;51.120;17.024;2022-11-20T04:52:00;31.0;;;23.5;;
68319;SDS011;55168;51.120;17.024;2022-11-20T04:53:00;31.0;;;23.5;;
68319;SDS011;55168;51.120;17.024;2022-11-20T04:54:00;31.0;;;23.5;;
68319;SDS011;55168;51.120;17.024;2022-11-20T04:55:00;34.4;;;24.0;;
68319;SDS011;55168;51.120;17.024;2022-11-20T04:56:03;34.4;;;24.0;;
68319;SDS011;55168;51.120;17.024;2022-11-20T04:57:00;34.4;;;24.0;;
68319;SDS011;55168;51.120;17.024;2022-11-20T04:58:00;34.4;;;24.0;;
68319;SDS011;55168;51.120;17.024;2022-11-20T04:59:01;36.1;;;25.1;;
68319;SDS011;55168;51.120;17.024;2022-11-20T05:00:00;36.1;;;25.1;;
68319;SDS011;55168;51.120;17.024;2022-11-20T05:01:02;36.1;;;25.1;;
68319;SDS011;55168;51.120;17.024;2022-11-20T05:02:00;36.1;;;25.1;;
68319;SDS011;55168;51.120;17.024;2022-11-20T05:03:00;36.1;;;25.1;;
68319;SDS011;55168;51.120;17.024;2022-11-20T05:04:00;34.5;;;24.5;;
68319;SDS011;55168;51.120;17.024;2022-11-20T05:05:00;34.5;;;24.5;;
68319;SDS011;55168;51.120;17.024;2022-11-20T05:06:00;34.5;;;24.5;;
68319;SDS011;55168;51.120;17.024;2022-11-20T05:07:00;34.5;;;24.5;;
68319;SDS011;55168;51.120;17.024;2022-11-20T05:08:00;34.5;;;24.5;;
68319;SDS011;55168;51.120;17.024;2022-11-20T05:09:00;38.9;;;26.3;;
68319;SDS011;55168;51.120;17.024;2022-11-20T05:10:00;38.9;;;26.3;;
68319;SDS011;55168;51.120;17.024;2022-11-20T05:11:05;38.9;;;26.3;;
68319;SDS011;55168;51.120;17.024;2022-11-20T05:12:00;38.9;;;26.3;;
68319;SDS011;55168;51.120;17.024;2022-11-20T05:13:00;38.9;;;26.3;;
68319;SDS011;55168;51.120;17.024;2022-11-20T05:14:00;38.9;;;27.4;;
68319;SDS011;55168;51.120;17.024;2022-11-20T05:15:00;38.9;;;27.4;;
68319;SDS011;55168;51.120;17.024;2022-11-20T05:16:06;38.9;;;27.4;;
68319;SDS011;55168;51.120;17.024;2022-11-20T05:17:00;38.9;;;27.4;;
68319;SDS011;55168;51.120;17.024;2022-11-20T05:18:00;38.9;;;27.4;;
68319;SDS011;55168;51.120;17.024;2022-11-20T05:19:00;39.7;;;27.9;;
68319;SDS011;55168;51.120;17.024;2022-11-20T05:20:00;39.7;;;27.9;;
68319;SDS011;55168;51.120;17.024;2022-11-20T05:21:00;39.7;;;27.9;;
68319;SDS011;55168;51.120;17.024;2022-11-20T05:22:00;39.7;;;27.9;;
68319;SDS011;55168;51.120;17.024;2022-11-20T05:23:00;39.7;;;27.9;;
68319;SDS011;55168;51.120;17.024;2022-11-20T05:24:00;41.5;;;28.2;;
68319;SDS011;55168;51.120;17.024;2022-11-20T05:25:00;41.5;;;28.2;;
68319;SDS011;55168;51.120;17.024;2022-11-20T05:26:00;41.5;;;28.2;;
68319;SDS011;55168;51.120;17.024;2022-11-20T05:27:00;41.5;;;28.2;;
68319;SDS011;55168;51.120;17.024;2022-11-20T05:28:00;41.5;;;28.2;;
68319;SDS011;55168;51.120;17.024;2022-11-20T05:29:00;44.3;;;31.6;;
68319;SDS011;55168;51.120;17.024;2022-11-20T05:30:00;44.3;;;31.6;;
68319;SDS011;55168;51.120;17.024;2022-11-20T05:31:05;44.3;;;31.6;;
68319;SDS011;55168;51.120;17.024;2022-11-20T05:32:00;44.3;;;31.6;;
68319;SDS011;55168;51.120;17.024;2022-11-20T05:33:00;44.3;;;31.6;;
68319;SDS011;55168;51.120;17.024;2022-11-20T05:34:00;45.3;;;31.2;;
68319;SDS011;55168;51.120;17.024;2022-11-20T05:35:00;45.3;;;31.2;;
68319;SDS011;55168;51.120;17.024;2022-11-20T05:36:00;45.3;;;31.2;;
68319;SDS011;55168;51.120;17.024;2022-11-20T05:37:00;45.3;;;31.2;;
68319;SDS011;55168;51.120;17.024;2022-11-20T05:38:00;45.3;;;31.2;;
68319;SDS011;55168;51.120;17.024;2022-11-20T05:39:00;48.1;;;33.7;;
68319;SDS011;55168;51.120;17.024;2022-11-20T05:40:00;48.1;;;33.7;;
68319;SDS011;55168;51.120;17.024;2022-11-20T05:41:11;48.1;;;33.7;;
68319;SDS011;55168;51.120;17.024;2022-11-20T05:42:00;48.1;;;33.7;;
68319;SDS011;55168;51.120;17.024;2022-11-20T05:43:00;48.1;;;33.7;;
68319;SDS011;55168;51.120;17.024;2022-11-20T05:44:00;50.4;;;33.0;;
68319;SDS011;55168;51.120;17.024;2022-11-20T05:45:03;50.4;;;33.0;;
68319;SDS011;55168;51.120;17.024;2022-11-20T05:46:00;50.4;;;33.0;;
68319;SDS011;55168;51.120;17.024;2022-11-20T05:47:00;50.4;;;33.0;;
68319;SDS011;55168;51.120;17.024;2022-11-20T05:48:00;50.4;;;33.0;;
68319;SDS011;55168;51.120;17.024;2022-11-20T05:49:00;52.7;;;37.1;;
68319;SDS011;55168;51.120;17.024;2022-11-20T05:50:00;52.7;;;37.1;;
68319;SDS011;55168;51.120;17.024;2022-11-20T05:51:01;52.7;;;37.1;;
68319;SDS011;55168;51.120;17.024;2022-11-20T05:52:00;52.7;;;37.1;;
68319;SDS011;55168;51.120;17.024;2022-11-20T05:53:00;52.7;;;37.1;;
68319;SDS011;55168;51.120;17.024;2022-11-20T05:54:00;50.9;;;35.8;;
68319;SDS011;55168;51.120;17.024;2022-11-20T05:55:00;50.9;;;35.8;;
68319;SDS011;55168;51.120;17.024;2022-11-20T05:56:03;50.9;;;35.8;;